createdAt,value
2023-03-07T00:00:45.349Z,98885.13
2023-03-07T00:03:14.294Z,98883.28
2023-03-07T00:05:42.270Z,98888.44
2023-03-07T00:08:10.168Z,98889.59
2023-03-07T00:10:37.989Z,98885.16
2023-03-07T00:13:05.783Z,98890.38
2023-03-07T00:15:33.428Z,98875.97
2023-03-07T00:18:02.316Z,98894.69
2023-03-07T00:20:30.044Z,98889.00
2023-03-07T00:22:57.675Z,98902.44
2023-03-07T00:25:25.185Z,98887.03
2023-03-07T00:27:52.750Z,98876.03
2023-03-07T00:30:20.579Z,98881.88
2023-03-07T00:32:48.119Z,98877.03
2023-03-07T00:35:17.059Z,98882.13
2023-03-07T00:37:44.655Z,98871.94
2023-03-07T00:40:13.278Z,98879.59
2023-03-07T00:42:40.801Z,98878.88
2023-03-07T00:45:09.485Z,98869.53
2023-03-07T00:47:37.068Z,98867.78
2023-03-07T00:50:05.422Z,98863.75
2023-03-07T00:52:34.909Z,98874.63
2023-03-07T00:55:02.824Z,98869.50
2023-03-07T00:57:30.505Z,98863.50
2023-03-07T00:59:58.178Z,98852.63
2023-03-07T01:02:26.146Z,98861.75
2023-03-07T01:04:54.114Z,98855.03
2023-03-07T01:07:21.674Z,98848.09
2023-03-07T01:09:53.253Z,98843.84
2023-03-07T01:12:21.120Z,98849.75
2023-03-07T01:14:51.237Z,98844.69
2023-03-07T01:17:19.242Z,98847.25
2023-03-07T01:19:46.780Z,98853.19
2023-03-07T01:22:14.375Z,98847.22
2023-03-07T01:24:42.125Z,98837.91
2023-03-07T01:27:11.252Z,98851.38
2023-03-07T01:29:38.914Z,98868.38
2023-03-07T01:32:06.929Z,98856.38
2023-03-07T01:34:34.805Z,98862.38
2023-03-07T01:37:02.398Z,98852.53
2023-03-07T01:39:30.568Z,98848.31
2023-03-07T01:42:02.308Z,98843.84
2023-03-07T01:44:32.605Z,98851.84
2023-03-07T01:47:01.057Z,98850.00
2023-03-07T01:49:40.667Z,98846.56
2023-03-07T01:52:11.161Z,98846.59
2023-03-07T01:54:48.910Z,98842.69
2023-03-07T01:57:20.469Z,98830.97
2023-03-07T01:59:54.643Z,98829.78
2023-03-07T02:02:23.553Z,98846.47
2023-03-07T02:04:55.439Z,98821.91
2023-03-07T02:07:25.788Z,98815.06
2023-03-07T02:09:54.801Z,98808.94
2023-03-07T02:12:23.275Z,98809.69
2023-03-07T02:14:53.257Z,98811.22
2023-03-07T02:17:21.281Z,98800.06
2023-03-07T02:20:05.613Z,98795.63
2023-03-07T02:22:33.258Z,98793.91
2023-03-07T02:25:04.381Z,98801.53
2023-03-07T02:27:37.209Z,98802.91
2023-03-07T02:30:06.266Z,98786.88
2023-03-07T02:32:34.099Z,98800.72
2023-03-07T02:35:01.684Z,98790.34
2023-03-07T02:37:33.660Z,98791.38
2023-03-07T02:40:06.456Z,98788.72
2023-03-07T02:42:39.804Z,98783.66
2023-03-07T02:45:13.764Z,98785.25
2023-03-07T02:47:42.982Z,98786.13
2023-03-07T02:50:13.510Z,98776.09
2023-03-07T02:52:43.436Z,98777.91
2023-03-07T02:55:11.819Z,98786.38
2023-03-07T02:57:46.229Z,98781.28
2023-03-07T03:00:14.641Z,98772.91
2023-03-07T03:02:42.353Z,98777.13
2023-03-07T03:05:10.450Z,98765.13
2023-03-07T03:07:38.238Z,98766.94
2023-03-07T03:10:06.998Z,98764.44
2023-03-07T03:12:34.859Z,98758.50
2023-03-07T03:15:29.521Z,98759.41
2023-03-07T03:17:57.889Z,98748.53
2023-03-07T03:20:25.808Z,98750.34
2023-03-07T03:22:53.875Z,98751.97
2023-03-07T03:25:23.111Z,98746.09
2023-03-07T03:27:51.171Z,98751.88
2023-03-07T03:30:19.304Z,98750.16
2023-03-07T03:32:48.327Z,98747.00
2023-03-07T03:35:18.325Z,98756.97
2023-03-07T03:37:47.281Z,98746.88
2023-03-07T03:40:17.914Z,98755.53
2023-03-07T03:42:47.414Z,98748.91
2023-03-07T03:45:18.307Z,98738.84
2023-03-07T03:47:48.357Z,98747.19
2023-03-07T03:50:18.979Z,98735.28
2023-03-07T03:52:46.562Z,98745.66
2023-03-07T03:55:14.156Z,98738.84
2023-03-07T03:57:42.172Z,98735.50
2023-03-07T04:00:14.652Z,98733.03
2023-03-07T04:02:42.443Z,98727.97
2023-03-07T04:05:14.289Z,98723.91
2023-03-07T04:07:43.245Z,98725.59
2023-03-07T04:10:11.973Z,98715.50
2023-03-07T04:12:39.711Z,98717.13
2023-03-07T04:15:08.687Z,98715.59
2023-03-07T04:17:37.034Z,98712.22
2023-03-07T04:20:07.615Z,98714.06
2023-03-07T04:22:35.425Z,98703.78
2023-03-07T04:25:04.889Z,98698.78
2023-03-07T04:27:34.243Z,98688.59
2023-03-07T04:30:01.813Z,98690.41
2023-03-07T04:32:29.667Z,98690.41
2023-03-07T04:34:57.457Z,98697.13
2023-03-07T04:37:25.068Z,98691.06
2023-03-07T04:39:52.695Z,98683.53
2023-03-07T04:42:22.515Z,98687.06
2023-03-07T04:44:50.139Z,98684.41
2023-03-07T04:47:19.091Z,98688.59
2023-03-07T04:49:46.760Z,98685.31
2023-03-07T04:52:15.364Z,98685.22
2023-03-07T04:54:43.138Z,98692.94
2023-03-07T04:57:10.896Z,98685.22
2023-03-07T04:59:40.338Z,98674.44
2023-03-07T05:02:12.576Z,98670.22
2023-03-07T05:04:40.521Z,98675.22
2023-03-07T05:07:08.942Z,98665.03
2023-03-07T05:09:36.762Z,98661.69
2023-03-07T05:12:05.173Z,98665.25
2023-03-07T05:14:32.871Z,98659.22
2023-03-07T05:17:01.776Z,98658.38
2023-03-07T05:19:30.573Z,98661.75
2023-03-07T05:21:58.893Z,98655.13
2023-03-07T05:24:27.061Z,98657.66
2023-03-07T05:26:55.076Z,98661.19
2023-03-07T05:29:22.711Z,98648.59
2023-03-07T05:31:50.245Z,98653.69
2023-03-07T05:34:19.178Z,98649.41
2023-03-07T05:36:48.014Z,98648.47
2023-03-07T05:39:16.788Z,98648.47
2023-03-07T05:41:44.370Z,98648.47
2023-03-07T05:44:13.232Z,98651.97
2023-03-07T05:46:40.782Z,98641.94
2023-03-07T05:49:08.363Z,98639.47
2023-03-07T05:51:37.255Z,98647.31
2023-03-07T05:54:05.277Z,98635.53
2023-03-07T05:56:33.135Z,98636.34
2023-03-07T05:59:00.773Z,98637.28
2023-03-07T06:01:28.681Z,98637.34
2023-03-07T06:03:57.114Z,98628.06
2023-03-07T06:06:24.688Z,98640.94
2023-03-07T06:08:53.573Z,98634.91
2023-03-07T06:11:21.350Z,98634.09
2023-03-07T06:13:49.580Z,98629.97
2023-03-07T06:16:17.109Z,98626.56
2023-03-07T06:18:45.162Z,98632.75
2023-03-07T06:21:19.354Z,98626.34
2023-03-07T06:23:47.275Z,98628.25
2023-03-07T06:26:20.515Z,98628.06
2023-03-07T06:28:52.124Z,98628.13
2023-03-07T06:31:21.129Z,98625.56
2023-03-07T06:33:49.103Z,98629.84
2023-03-07T06:36:19.979Z,98630.84
2023-03-07T06:38:51.651Z,98635.88
2023-03-07T06:41:20.694Z,98633.34
2023-03-07T06:43:52.520Z,98624.03
2023-03-07T06:46:24.353Z,98627.41
2023-03-07T06:48:52.095Z,98627.63
2023-03-07T06:51:21.059Z,98631.81
2023-03-07T06:53:49.523Z,98631.09
2023-03-07T06:56:17.275Z,98630.44
2023-03-07T06:58:46.853Z,98634.66
2023-03-07T07:01:17.858Z,98627.06
2023-03-07T07:03:46.930Z,98634.75
2023-03-07T07:06:14.550Z,98631.44
2023-03-07T07:08:42.169Z,98635.84
2023-03-07T07:11:10.925Z,98630.88
2023-03-07T07:13:39.466Z,98645.56
2023-03-07T07:16:09.726Z,98633.66
2023-03-07T07:18:39.348Z,98630.31
2023-03-07T07:21:08.830Z,98637.22
2023-03-07T07:23:36.567Z,98639.75
2023-03-07T07:26:05.637Z,98649.09
2023-03-07T07:28:34.012Z,98646.78
2023-03-07T07:31:01.656Z,98636.59
2023-03-07T07:33:32.763Z,98653.63
2023-03-07T07:36:00.478Z,98642.09
2023-03-07T07:38:28.087Z,98652.41
2023-03-07T07:40:56.121Z,98648.97
2023-03-07T07:43:24.827Z,98642.09
2023-03-07T07:46:04.910Z,98635.34
2023-03-07T07:48:34.492Z,98652.53
2023-03-07T07:51:02.962Z,98645.63
2023-03-07T07:53:31.856Z,98644.94
2023-03-07T07:55:59.605Z,98650.94
2023-03-07T07:58:27.346Z,98646.69
2023-03-07T08:00:55.701Z,98641.09
2023-03-07T08:03:23.292Z,98640.59
2023-03-07T08:05:52.304Z,98647.31
2023-03-07T08:08:20.429Z,98632.91
2023-03-07T08:10:48.788Z,98641.97
2023-03-07T08:17:02.122Z,98632.34
2023-03-07T08:19:29.988Z,98621.41
2023-03-07T08:21:59.436Z,98624.06
2023-03-07T08:24:39.908Z,98640.47
2023-03-07T08:27:08.321Z,98624.78
2023-03-07T08:29:36.078Z,98626.47
2023-03-07T08:32:03.746Z,98635.53
2023-03-07T08:34:34.020Z,98622.22
2023-03-07T08:37:03.334Z,98632.38
2023-03-07T08:39:30.838Z,98637.91
2023-03-07T08:41:59.379Z,98640.88
2023-03-07T08:44:27.164Z,98619.81
2023-03-07T08:46:54.771Z,98630.97
2023-03-07T08:49:22.323Z,98630.25
2023-03-07T08:51:50.230Z,98619.06
2023-03-07T08:54:19.169Z,98630.25
2023-03-07T08:56:46.705Z,98639.59
2023-03-07T08:59:14.276Z,98615.41
2023-03-07T09:01:41.884Z,98616.63
2023-03-07T09:04:09.580Z,98628.34
2023-03-07T09:06:37.162Z,98612.66
2023-03-07T09:09:05.908Z,98608.28
2023-03-07T09:11:34.797Z,98619.53
2023-03-07T09:14:02.388Z,98630.31
2023-03-07T09:16:29.996Z,98659.44
2023-03-07T09:18:57.583Z,98614.34
2023-03-07T09:21:25.163Z,98622.16
2023-03-07T09:23:52.840Z,98612.03
2023-03-07T09:26:22.970Z,98612.00
2023-03-07T09:28:51.908Z,98611.53
2023-03-07T09:31:19.651Z,98613.91
2023-03-07T09:33:47.374Z,98618.19
2023-03-07T09:36:18.248Z,98614.22
2023-03-07T09:38:46.892Z,98611.63
2023-03-07T09:41:31.623Z,98619.88
2023-03-07T09:44:09.385Z,98628.53
2023-03-07T09:47:37.224Z,98603.88
2023-03-07T09:50:13.067Z,98605.06
2023-03-07T09:52:42.382Z,98623.34
2023-03-07T09:55:13.824Z,98613.19
2023-03-07T09:57:50.092Z,98594.09
2023-03-07T10:00:23.258Z,98591.19
2023-03-07T10:02:55.352Z,98591.44
2023-03-07T10:05:31.448Z,98598.53
2023-03-07T10:08:01.292Z,98595.78
2023-03-07T10:10:37.752Z,98578.56
2023-03-07T10:13:23.452Z,98574.03
2023-03-07T10:15:57.324Z,98591.06
2023-03-07T10:18:47.049Z,98580.69
2023-03-07T10:21:25.037Z,98582.66
2023-03-07T10:24:18.143Z,98580.44
2023-03-07T10:26:51.973Z,98575.31
2023-03-07T10:29:20.776Z,98575.25
2023-03-07T10:31:56.261Z,98572.75
2023-03-07T10:34:28.373Z,98567.25
2023-03-07T10:37:08.933Z,98561.81
2023-03-07T10:39:44.407Z,98554.88
2023-03-07T10:42:13.794Z,98551.78
2023-03-07T10:44:41.818Z,98545.28
2023-03-07T10:47:19.678Z,98534.03
2023-03-07T10:49:48.921Z,98535.34
2023-03-07T10:52:29.785Z,98533.28
2023-03-07T10:55:33.731Z,98545.91
2023-03-07T10:58:16.858Z,98533.94
2023-03-07T11:00:45.361Z,98539.94
2023-03-07T11:03:35.289Z,98540.97
2023-03-07T11:06:26.875Z,98532.19
2023-03-07T11:08:56.028Z,98528.16
2023-03-07T11:11:25.132Z,98538.44
2023-03-07T11:14:09.263Z,98532.75
2023-03-07T11:16:42.419Z,98525.13
2023-03-07T11:19:31.034Z,98538.72
2023-03-07T11:22:01.102Z,98525.06
2023-03-07T11:24:30.551Z,98533.13
2023-03-07T11:27:00.035Z,98534.09
2023-03-07T11:29:29.290Z,98542.63
2023-03-07T11:32:11.346Z,98534.31
2023-03-07T11:34:44.943Z,98524.34
2023-03-07T11:37:26.648Z,98515.03
2023-03-07T11:40:06.252Z,98521.09
2023-03-07T11:42:39.503Z,98515.97
2023-03-07T11:45:17.814Z,98517.47
2023-03-07T11:47:52.991Z,98503.13
2023-03-07T11:50:26.472Z,98502.53
2023-03-07T11:53:15.289Z,98505.78
2023-03-07T11:55:50.013Z,98505.78
2023-03-07T11:58:34.063Z,98492.00
2023-03-07T12:01:15.075Z,98502.53
2023-03-07T12:04:14.255Z,98481.38
2023-03-07T12:06:52.967Z,98489.38
2023-03-07T12:09:29.819Z,98483.16
2023-03-07T12:12:29.903Z,98478.09
2023-03-07T12:15:06.822Z,98464.25
2023-03-07T12:17:47.712Z,98463.53
2023-03-07T12:20:36.670Z,98470.84
2023-03-07T12:23:11.692Z,98455.88
2023-03-07T12:25:42.867Z,98468.03
2023-03-07T12:28:18.709Z,98465.84
2023-03-07T12:30:56.217Z,98449.94
2023-03-07T12:33:32.039Z,98440.09
2023-03-07T12:36:04.166Z,98438.41
2023-03-07T12:38:40.453Z,98429.44
2023-03-07T12:41:21.791Z,98445.56
2023-03-07T12:43:55.074Z,98438.69
2023-03-07T12:46:32.957Z,98431.44
2023-03-07T12:49:09.717Z,98431.13
2023-03-07T12:51:41.909Z,98431.06
2023-03-07T12:54:16.126Z,98413.41
2023-03-07T12:56:50.751Z,98409.38
2023-03-07T12:59:20.558Z,98419.06
2023-03-07T13:01:51.667Z,98417.25
2023-03-07T13:04:24.181Z,98428.13
2023-03-07T13:06:56.608Z,98440.44
2023-03-07T13:09:27.864Z,98442.03
2023-03-07T13:12:32.694Z,98435.09
2023-03-07T13:15:01.684Z,98416.06
2023-03-07T13:18:01.439Z,98422.56
2023-03-07T13:21:06.919Z,98426.47
2023-03-07T13:23:34.733Z,98426.84
2023-03-07T13:26:07.577Z,98415.56
2023-03-07T13:28:51.216Z,98409.25
2023-03-07T13:31:26.778Z,98410.41
2023-03-07T13:33:54.696Z,98420.69
2023-03-07T13:36:34.464Z,98400.03
2023-03-07T13:39:02.429Z,98403.53
2023-03-07T13:41:48.354Z,98405.25
2023-03-07T13:44:30.177Z,98413.72
2023-03-07T13:47:02.703Z,98412.13
2023-03-07T13:49:44.865Z,98399.53
2023-03-07T13:52:42.865Z,98409.97
2023-03-07T13:55:25.034Z,98409.41
2023-03-07T13:57:58.439Z,98434.38
2023-03-07T14:00:30.738Z,98424.03
2023-03-07T14:02:58.590Z,98429.25
2023-03-07T14:05:26.723Z,98423.28
2023-03-07T14:07:54.772Z,98430.13
2023-03-07T14:10:26.227Z,98425.81
2023-03-07T14:13:25.483Z,98429.94
2023-03-07T14:16:06.549Z,98425.81
2023-03-07T14:18:51.075Z,98442.88
2023-03-07T14:21:29.529Z,98465.84
2023-03-07T14:24:23.337Z,98439.81
2023-03-07T14:26:54.019Z,98451.16
2023-03-07T14:29:24.983Z,98444.38
2023-03-07T14:31:54.069Z,98443.50
2023-03-07T14:34:28.110Z,98444.16
2023-03-07T14:36:57.799Z,98434.75
2023-03-07T14:39:27.962Z,98443.25
2023-03-07T14:42:08.528Z,98441.22
2023-03-07T14:45:07.662Z,98432.66
2023-03-07T14:47:51.397Z,98448.22
2023-03-07T14:50:21.069Z,98428.56
2023-03-07T14:52:50.412Z,98441.19
2023-03-07T14:55:20.758Z,98434.97
2023-03-07T14:57:52.878Z,98424.88
2023-03-07T15:00:28.370Z,98421.13
2023-03-07T15:02:58.618Z,98430.56
2023-03-07T15:05:31.717Z,98428.75
2023-03-07T15:07:59.781Z,98432.41
2023-03-07T15:10:31.240Z,98433.19
2023-03-07T15:12:58.960Z,98439.34
2023-03-07T15:15:32.749Z,98426.41
2023-03-07T15:18:05.685Z,98430.88
2023-03-07T15:20:34.523Z,98417.22
2023-03-07T15:23:05.091Z,98421.25
2023-03-07T15:25:33.540Z,98423.28
2023-03-07T15:28:04.312Z,98428.66
2023-03-07T15:30:35.512Z,98420.81
2023-03-07T15:33:13.574Z,98406.31
2023-03-07T15:35:41.337Z,98413.97
2023-03-07T15:38:16.168Z,98413.88
2023-03-07T15:40:44.146Z,98416.44
2023-03-07T15:43:18.198Z,98422.94
2023-03-07T15:46:01.636Z,98421.16
2023-03-07T15:48:36.972Z,98430.56
2023-03-07T15:51:07.210Z,98430.47
2023-03-07T15:53:37.482Z,98430.47
2023-03-07T15:56:10.176Z,98428.72
2023-03-07T15:58:43.475Z,98433.91
2023-03-07T16:01:21.311Z,98423.59
2023-03-07T16:03:51.474Z,98418.63
2023-03-07T16:06:35.468Z,98414.38
2023-03-07T16:09:04.201Z,98425.44
2023-03-07T16:11:32.152Z,98415.22
2023-03-07T16:14:00.413Z,98416.84
2023-03-07T16:16:31.296Z,98415.13
2023-03-07T16:18:59.093Z,98408.25
2023-03-07T16:21:27.306Z,98406.53
2023-03-07T16:23:54.980Z,98430.28
2023-03-07T16:26:24.161Z,98410.47
2023-03-07T16:28:53.165Z,98430.16
2023-03-07T16:31:21.186Z,98426.78
2023-03-07T16:33:50.282Z,98426.69
2023-03-07T16:36:18.562Z,98417.97
2023-03-07T16:38:47.500Z,98415.50
2023-03-07T16:41:21.057Z,98420.63
2023-03-07T16:43:54.236Z,98423.19
2023-03-07T16:46:23.156Z,98421.53
2023-03-07T16:48:52.245Z,98416.38
2023-03-07T16:51:21.600Z,98412.00
2023-03-07T16:53:51.053Z,98419.59
2023-03-07T16:56:26.189Z,98410.19
2023-03-07T16:58:54.591Z,98411.06
2023-03-07T17:01:22.243Z,98412.84
2023-03-07T17:03:49.942Z,98419.69
2023-03-07T17:06:25.281Z,98417.94
2023-03-07T17:08:55.289Z,98424.03
2023-03-07T17:11:25.371Z,98428.16
2023-03-07T17:13:55.046Z,98428.94
2023-03-07T17:16:22.925Z,98424.56
2023-03-07T17:18:50.528Z,98416.16
2023-03-07T17:21:21.528Z,98422.06
2023-03-07T17:23:50.039Z,98422.88
2023-03-07T17:26:23.007Z,98431.38
2023-03-07T17:28:51.529Z,98440.75
2023-03-07T17:31:19.128Z,98447.41
2023-03-07T17:33:47.168Z,98459.34
2023-03-07T17:36:14.772Z,98461.16
2023-03-07T17:38:43.802Z,98461.22
2023-03-07T17:41:11.386Z,98465.38
2023-03-07T17:43:39.335Z,98473.00
2023-03-07T17:46:10.006Z,98472.22
2023-03-07T17:48:38.239Z,98477.41
2023-03-07T17:51:09.105Z,98478.19
2023-03-07T17:53:37.068Z,98480.78
2023-03-07T17:56:10.455Z,98472.28
2023-03-07T17:58:38.352Z,98482.47
2023-03-07T18:01:07.724Z,98482.41
2023-03-07T18:03:36.228Z,98491.81
2023-03-07T18:06:04.083Z,98490.91
2023-03-07T18:08:32.998Z,98492.63
2023-03-07T18:11:04.377Z,98495.22
2023-03-07T18:13:33.786Z,98502.03
2023-03-07T18:20:10.952Z,98503.75
2023-03-07T18:22:39.039Z,98504.59
2023-03-07T18:25:09.099Z,98499.50
2023-03-07T18:27:36.730Z,98496.09
2023-03-07T18:30:06.820Z,98503.78
2023-03-07T18:32:34.983Z,98498.72
2023-03-07T18:35:02.646Z,98501.19
2023-03-07T18:37:30.248Z,98506.22
2023-03-07T18:39:57.825Z,98510.50
2023-03-07T18:42:25.402Z,98513.97
2023-03-07T18:44:52.954Z,98509.75
2023-03-07T18:47:21.982Z,98537.84
2023-03-07T18:49:51.042Z,98519.97
2023-03-07T18:52:18.990Z,98519.97
2023-03-07T18:54:48.776Z,98539.53
2023-03-07T18:57:16.392Z,98526.69
2023-03-07T18:59:43.953Z,98536.94
2023-03-07T19:02:11.865Z,98526.69
2023-03-07T19:04:40.844Z,98535.31
2023-03-07T19:07:08.537Z,98542.97
2023-03-07T19:09:36.144Z,98535.28
2023-03-07T19:12:03.839Z,98537.69
2023-03-07T19:14:33.081Z,98543.63
2023-03-07T19:17:00.879Z,98552.09
2023-03-07T19:19:29.617Z,98536.66
2023-03-07T19:21:59.625Z,98533.31
2023-03-07T19:24:29.477Z,98543.56
2023-03-07T19:26:57.741Z,98544.38
2023-03-07T19:29:25.422Z,98535.91
2023-03-07T19:31:53.194Z,98549.44
2023-03-07T19:34:20.879Z,98552.09
2023-03-07T19:36:48.679Z,98547.81
2023-03-07T19:39:20.349Z,98545.25
2023-03-07T19:41:48.902Z,98560.50
2023-03-07T19:44:17.072Z,98562.19
2023-03-07T19:46:46.894Z,98569.91
2023-03-07T19:49:14.530Z,98567.44
2023-03-07T19:51:42.292Z,98571.69
2023-03-07T19:54:13.788Z,98574.19
2023-03-07T19:56:44.946Z,98565.59
2023-03-07T19:59:13.816Z,98584.56
2023-03-07T20:01:43.911Z,98576.78
2023-03-07T20:04:13.122Z,98581.69
2023-03-07T20:06:43.280Z,98580.00
2023-03-07T20:09:13.218Z,98580.91
2023-03-07T20:11:43.988Z,98587.78
2023-03-07T20:14:13.176Z,98571.66
2023-03-07T20:16:41.713Z,98582.63
2023-03-07T20:19:10.767Z,98585.94
2023-03-07T20:21:40.134Z,98575.66
2023-03-07T20:24:09.146Z,98577.41
2023-03-07T20:26:38.897Z,98579.06
2023-03-07T20:29:09.534Z,98580.78
2023-03-07T20:31:40.345Z,98586.72
2023-03-07T20:34:08.873Z,98585.00
2023-03-07T20:36:39.094Z,98587.63
2023-03-07T20:39:13.098Z,98580.00
2023-03-07T20:41:42.640Z,98587.50
2023-03-07T20:44:14.372Z,98583.22
2023-03-07T20:46:43.060Z,98582.34
2023-03-07T20:49:14.027Z,98600.25
2023-03-07T20:51:42.746Z,98580.63
2023-03-07T20:54:14.309Z,98575.44
2023-03-07T20:56:42.985Z,98574.69
2023-03-07T20:59:15.302Z,98587.47
2023-03-07T21:01:43.830Z,98621.50
2023-03-07T21:04:17.570Z,98584.72
2023-03-07T21:06:45.931Z,98580.56
2023-03-07T21:09:15.002Z,98583.94
2023-03-07T21:11:45.971Z,98584.63
2023-03-07T21:14:16.244Z,98593.25
2023-03-07T21:16:44.450Z,98601.56
2023-03-07T21:19:12.641Z,98606.63
2023-03-07T21:21:40.954Z,98609.31
2023-03-07T21:24:09.763Z,98611.63
2023-03-07T21:26:37.405Z,98630.38
2023-03-07T21:29:05.676Z,98617.56
2023-03-07T21:31:36.110Z,98617.56
2023-03-07T21:34:06.193Z,98614.09
2023-03-07T21:36:34.490Z,98616.50
2023-03-07T21:39:04.034Z,98634.31
2023-03-07T21:41:31.652Z,98625.78
2023-03-07T21:43:59.919Z,98619.94
2023-03-07T21:46:27.622Z,98624.22
2023-03-07T21:48:59.407Z,98624.13
2023-03-07T21:51:27.030Z,98615.69
2023-03-07T21:53:54.610Z,98635.19
2023-03-07T21:56:23.891Z,98627.59
2023-03-07T21:58:52.692Z,98648.16
2023-03-07T22:01:22.897Z,98644.69
2023-03-07T22:03:52.496Z,98634.66
2023-03-07T22:06:22.557Z,98637.22
2023-03-07T22:08:50.204Z,98634.53
2023-03-07T22:11:17.876Z,98653.38
2023-03-07T22:13:45.443Z,98643.13
2023-03-07T22:16:14.991Z,98653.34
2023-03-07T22:18:42.766Z,98653.38
2023-03-07T22:21:13.587Z,98654.22
2023-03-07T22:23:42.916Z,98647.38
2023-03-07T22:26:16.249Z,98658.50
2023-03-07T22:28:47.184Z,98644.00
2023-03-07T22:31:15.004Z,98640.56
2023-03-07T22:33:42.869Z,98643.16
2023-03-07T22:36:13.686Z,98629.44
2023-03-07T22:38:43.049Z,98636.25
2023-03-07T22:41:13.525Z,98632.72
2023-03-07T22:43:41.224Z,98633.56
2023-03-07T22:46:09.646Z,98632.72
2023-03-07T22:48:37.417Z,98630.13
2023-03-07T22:51:05.485Z,98637.84
2023-03-07T22:53:35.472Z,98637.72
2023-03-07T22:56:04.535Z,98642.06
2023-03-07T22:58:32.117Z,98641.09
2023-03-07T23:00:59.737Z,98630.97
2023-03-07T23:03:27.349Z,98641.00
2023-03-07T23:06:00.297Z,98660.78
2023-03-07T23:08:27.891Z,98656.63
2023-03-07T23:11:01.236Z,98655.72
2023-03-07T23:13:30.232Z,98651.41
2023-03-07T23:15:58.266Z,98650.50
2023-03-07T23:18:26.037Z,98658.06
2023-03-07T23:20:53.680Z,98632.53
2023-03-07T23:23:21.382Z,98655.69
2023-03-07T23:25:48.973Z,98634.19
2023-03-07T23:28:16.568Z,98652.22
2023-03-07T23:30:45.535Z,98649.59
2023-03-07T23:33:13.354Z,98646.28
2023-03-07T23:35:40.959Z,98657.53
2023-03-07T23:38:08.684Z,98654.91
2023-03-07T23:40:37.699Z,98648.88
2023-03-07T23:43:06.562Z,98670.25
2023-03-07T23:45:34.396Z,98670.38
2023-03-07T23:48:03.315Z,98665.06
2023-03-07T23:50:30.978Z,98661.66
2023-03-07T23:52:58.538Z,98664.31
2023-03-07T23:55:26.050Z,98670.28
2023-03-07T23:57:53.626Z,98680.50
